createdAt,value
2016-05-17T00:00:36.828Z,0
2016-05-17T00:01:37.925Z,0
2016-05-17T00:02:37.365Z,0
2016-05-17T00:03:37.836Z,0
2016-05-17T00:04:36.948Z,0
2016-05-17T00:05:37.232Z,0
2016-05-17T00:06:38.250Z,0
2016-05-17T00:07:37.081Z,0
2016-05-17T00:08:36.880Z,0
2016-05-17T00:09:38.024Z,0
2016-05-17T00:10:36.917Z,0
2016-05-17T00:11:36.795Z,0
2016-05-17T00:12:37.627Z,0
2016-05-17T00:13:37.035Z,0
2016-05-17T00:14:36.616Z,0
2016-05-17T00:15:36.962Z,0
2016-05-17T00:16:36.668Z,0
2016-05-17T00:17:36.671Z,0
2016-05-17T00:18:37.720Z,0
2016-05-17T00:19:37.771Z,0
2016-05-17T00:20:36.632Z,0
2016-05-17T00:21:38.572Z,0
2016-05-17T00:22:36.638Z,0
2016-05-17T00:23:36.281Z,0
2016-05-17T00:24:37.565Z,0
2016-05-17T00:25:37.176Z,0
2016-05-17T00:26:36.992Z,0
2016-05-17T00:27:36.604Z,0
2016-05-17T00:28:37.685Z,0
2016-05-17T00:29:36.656Z,0
2016-05-17T00:30:36.268Z,0
2016-05-17T00:31:36.833Z,0
2016-05-17T00:32:35.962Z,0
2016-05-17T00:33:37.948Z,0
2016-05-17T00:34:36.466Z,0
2016-05-17T00:35:36.500Z,0
2016-05-17T00:36:36.737Z,0
2016-05-17T00:37:37.147Z,0
2016-05-17T00:38:36.290Z,0
2016-05-17T00:39:36.042Z,0
2016-05-17T00:40:36.498Z,0
2016-05-17T00:41:36.938Z,0
2016-05-17T00:42:36.050Z,0
2016-05-17T00:43:36.163Z,0
2016-05-17T00:44:36.228Z,0
2016-05-17T00:45:35.825Z,0
2016-05-17T00:46:36.124Z,0
2016-05-17T00:47:36.283Z,0
2016-05-17T00:48:36.161Z,0
2016-05-17T00:49:36.929Z,0
2016-05-17T00:50:36.243Z,0
2016-05-17T00:51:36.059Z,0
2016-05-17T00:52:36.530Z,0
2016-05-17T00:53:36.518Z,0
2016-05-17T00:54:36.285Z,0
2016-05-17T00:55:35.898Z,0
2016-05-17T00:56:36.745Z,0
2016-05-17T00:57:35.715Z,0
2016-05-17T00:58:36.218Z,0
2016-05-17T00:59:35.612Z,0
2016-05-17T01:00:35.615Z,0
2016-05-17T01:01:36.009Z,0
2016-05-17T01:02:36.792Z,0
2016-05-17T01:03:36.092Z,0
2016-05-17T01:04:36.094Z,0
2016-05-17T01:05:36.409Z,0
2016-05-17T01:06:35.692Z,0
2016-05-17T01:07:35.962Z,0
2016-05-17T01:08:35.511Z,0
2016-05-17T01:09:35.717Z,0
2016-05-17T01:10:35.876Z,0
2016-05-17T01:11:36.347Z,0
2016-05-17T01:12:35.850Z,0
2016-05-17T01:13:36.759Z,0
2016-05-17T01:14:37.027Z,0
2016-05-17T01:15:35.874Z,0
2016-05-17T01:16:36.611Z,0
2016-05-17T01:18:36.054Z,0
2016-05-17T01:19:35.947Z,0
2016-05-17T01:20:35.981Z,0
2016-05-17T01:21:36.358Z,0
2016-05-17T01:22:35.877Z,0
2016-05-17T01:23:34.551Z,0
2016-05-17T01:24:35.257Z,0
2016-05-17T01:25:35.994Z,0
2016-05-17T01:26:35.607Z,0
2016-05-17T01:27:36.046Z,0
2016-05-17T01:28:36.034Z,0
2016-05-17T01:29:36.317Z,0
2016-05-17T01:30:36.695Z,0
2016-05-17T01:31:34.526Z,0
2016-05-17T01:32:35.231Z,0
2016-05-17T01:34:35.690Z,0
2016-05-17T01:35:35.443Z,0
2016-05-17T01:37:36.151Z,0
2016-05-17T01:38:35.545Z,0
2016-05-17T01:39:35.828Z,0
2016-05-17T01:40:35.675Z,0
2016-05-17T01:41:34.491Z,0
2016-05-17T01:42:33.744Z,0
2016-05-17T01:43:34.386Z,0
2016-05-17T01:44:34.374Z,0
2016-05-17T01:45:34.579Z,0
2016-05-17T01:46:34.129Z,0
2016-05-17T01:47:34.319Z,0
2016-05-17T01:49:34.169Z,0
2016-05-17T01:50:34.249Z,0
2016-05-17T01:51:36.080Z,0
2016-05-17T01:52:34.942Z,0
2016-05-17T01:53:34.132Z,0
2016-05-17T01:54:33.932Z,0
2016-05-17T01:55:34.371Z,0
2016-05-17T01:56:34.202Z,0
2016-05-17T01:57:36.659Z,0
2016-05-17T01:58:34.849Z,0
2016-05-17T01:59:33.851Z,0
2016-05-17T02:00:34.073Z,0
2016-05-17T02:01:33.576Z,0
2016-05-17T02:02:34.547Z,0
2016-05-17T02:03:35.706Z,0
2016-05-17T02:04:34.083Z,0
2016-05-17T02:05:33.868Z,0
2016-05-17T02:06:35.042Z,0
2016-05-17T02:07:34.826Z,0
2016-05-17T02:08:34.439Z,0
2016-05-17T02:09:35.831Z,0
2016-05-17T02:10:33.725Z,0
2016-05-17T02:11:33.775Z,0
2016-05-17T02:12:34.339Z,0
2016-05-17T02:13:33.670Z,0
2016-05-17T02:14:34.986Z,0
2016-05-17T02:15:34.300Z,0
2016-05-17T02:16:35.881Z,0
2016-05-17T02:17:35.025Z,0
2016-05-17T02:18:33.840Z,0
2016-05-17T02:19:33.390Z,0
2016-05-17T02:20:34.860Z,0
2016-05-17T02:21:34.019Z,0
2016-05-17T02:22:33.694Z,0
2016-05-17T02:23:33.869Z,0
2016-05-17T02:24:33.513Z,0
2016-05-17T02:25:33.499Z,0
2016-05-17T02:26:33.315Z,0
2016-05-17T02:27:33.552Z,0
2016-05-17T02:28:33.617Z,0
2016-05-17T02:29:33.432Z,0
2016-05-17T02:30:33.826Z,0
2016-05-17T02:31:33.360Z,0
2016-05-17T02:32:33.471Z,0
2016-05-17T02:33:33.381Z,0
2016-05-17T02:34:35.867Z,0
2016-05-17T02:35:33.745Z,0
2016-05-17T02:36:33.388Z,0
2016-05-17T02:37:33.173Z,0
2016-05-17T02:38:33.065Z,0
2016-05-17T02:39:33.600Z,0
2016-05-17T02:40:33.946Z,0
2016-05-17T02:41:32.964Z,0
2016-05-17T02:42:32.842Z,0
2016-05-17T02:43:32.922Z,0
2016-05-17T02:44:33.753Z,0
2016-05-17T02:45:33.116Z,0
2016-05-17T02:46:33.212Z,0
2016-05-17T02:47:32.715Z,0
2016-05-17T02:48:32.921Z,0
2016-05-17T02:49:32.782Z,0
2016-05-17T02:50:32.801Z,0
2016-05-17T02:51:33.555Z,0
2016-05-17T02:52:32.978Z,0
2016-05-17T02:53:32.653Z,0
2016-05-17T02:54:32.921Z,0
2016-05-17T02:55:33.002Z,0
2016-05-17T02:56:33.458Z,0
2016-05-17T02:57:32.710Z,0
2016-05-17T02:58:34.369Z,0
2016-05-17T02:59:33.326Z,0
2016-05-17T03:00:33.454Z,0
2016-05-17T03:01:32.924Z,0
2016-05-17T03:02:32.880Z,0
2016-05-17T03:03:33.226Z,0
2016-05-17T03:04:33.167Z,0
2016-05-17T03:05:32.513Z,0
2016-05-17T03:06:32.219Z,0
2016-05-17T03:07:33.643Z,0
2016-05-17T03:08:32.787Z,0
2016-05-17T03:09:32.930Z,0
2016-05-17T03:10:32.636Z,0
2016-05-17T03:11:33.733Z,0
2016-05-17T03:12:36.329Z,0
2016-05-17T03:13:32.753Z,0
2016-05-17T03:14:33.772Z,4
2016-05-17T03:15:32.836Z,4
2016-05-17T03:16:32.372Z,4
2016-05-17T03:17:32.764Z,4
2016-05-17T03:18:32.080Z,0
2016-05-17T03:19:31.739Z,0
2016-05-17T03:20:32.100Z,0
2016-05-17T03:21:33.227Z,4
2016-05-17T03:22:36.324Z,4
2016-05-17T03:23:31.921Z,0
2016-05-17T03:24:32.111Z,0
2016-05-17T03:25:31.801Z,0
2016-05-17T03:26:33.569Z,4
2016-05-17T03:27:33.135Z,4
2016-05-17T03:28:32.357Z,4
2016-05-17T03:29:34.062Z,0
2016-05-17T03:30:31.846Z,0
2016-05-17T03:31:31.786Z,0
2016-05-17T03:32:32.977Z,4
2016-05-17T03:33:32.355Z,4
2016-05-17T03:34:31.982Z,4
2016-05-17T03:35:31.657Z,4
2016-05-17T03:36:32.440Z,4
2016-05-17T03:37:31.990Z,8
2016-05-17T03:38:31.601Z,8
2016-05-17T03:39:31.527Z,8
2016-05-17T03:40:32.545Z,8
2016-05-17T03:41:31.704Z,8
2016-05-17T03:42:31.612Z,8
2016-05-17T03:43:31.850Z,12
2016-05-17T03:44:32.478Z,12
2016-05-17T03:45:32.214Z,12
2016-05-17T03:46:33.639Z,16
2016-05-17T03:47:32.532Z,12
2016-05-17T03:48:31.942Z,16
2016-05-17T03:49:33.678Z,16
2016-05-17T03:50:31.165Z,16
2016-05-17T03:51:31.497Z,16
2016-05-17T03:52:31.983Z,16
2016-05-17T03:53:31.205Z,16
2016-05-17T03:54:31.285Z,16
2016-05-17T03:55:31.726Z,20
2016-05-17T03:56:31.775Z,20
2016-05-17T03:57:31.794Z,20
2016-05-17T03:58:31.515Z,20
2016-05-17T03:59:31.049Z,20
2016-05-17T04:00:31.130Z,24
2016-05-17T04:01:31.163Z,20
2016-05-17T04:02:32.510Z,20
2016-05-17T04:03:31.387Z,20
2016-05-17T04:04:31.563Z,24
2016-05-17T04:05:30.941Z,24
2016-05-17T04:06:32.287Z,32
2016-05-17T04:07:30.634Z,32
2016-05-17T04:08:31.995Z,32
2016-05-17T04:09:31.310Z,36
2016-05-17T04:10:32.187Z,36
2016-05-17T04:11:30.706Z,40
2016-05-17T04:12:31.131Z,40
2016-05-17T04:13:30.884Z,40
2016-05-17T04:14:30.511Z,48
2016-05-17T04:15:31.186Z,48
2016-05-17T04:16:31.126Z,52
2016-05-17T04:17:30.847Z,56
2016-05-17T04:18:31.475Z,56
2016-05-17T04:19:31.680Z,60
2016-05-17T04:20:30.731Z,60
2016-05-17T04:21:31.672Z,60
2016-05-17T04:22:31.752Z,60
2016-05-17T04:23:30.583Z,68
2016-05-17T04:24:30.647Z,64
2016-05-17T04:25:30.463Z,64
2016-05-17T04:26:31.793Z,68
2016-05-17T04:27:30.858Z,68
2016-05-17T04:28:31.205Z,72
2016-05-17T04:29:31.177Z,84
2016-05-17T04:30:30.288Z,88
2016-05-17T04:31:31.057Z,96
2016-05-17T04:32:32.404Z,96
2016-05-17T04:33:30.359Z,100
2016-05-17T04:34:31.299Z,100
2016-05-17T04:35:30.833Z,104
2016-05-17T04:36:30.915Z,108
2016-05-17T04:37:30.855Z,112
2016-05-17T04:38:30.342Z,116
2016-05-17T04:39:30.391Z,120
2016-05-17T04:40:30.409Z,120
2016-05-17T04:41:30.443Z,128
2016-05-17T04:42:30.039Z,128
2016-05-17T04:43:30.120Z,132
2016-05-17T04:44:29.983Z,136
2016-05-17T04:45:30.376Z,136
2016-05-17T04:46:30.582Z,144
2016-05-17T04:47:30.225Z,148
2016-05-17T04:48:30.744Z,160
2016-05-17T04:49:29.808Z,164
2016-05-17T04:50:30.280Z,172
2016-05-17T04:51:30.485Z,184
2016-05-17T04:52:31.145Z,184
2016-05-17T04:53:30.054Z,184
2016-05-17T04:54:30.510Z,180
2016-05-17T04:55:30.044Z,180
2016-05-17T04:56:30.046Z,188
2016-05-17T04:57:30.143Z,200
2016-05-17T04:58:30.599Z,216
2016-05-17T04:59:29.976Z,224
2016-05-17T05:00:29.557Z,228
2016-05-17T05:01:29.919Z,236
2016-05-17T05:02:30.266Z,240
2016-05-17T05:03:30.049Z,240
2016-05-17T05:04:29.802Z,248
2016-05-17T05:05:29.742Z,248
2016-05-17T05:06:30.198Z,236
2016-05-17T05:07:29.700Z,224
2016-05-17T05:08:29.359Z,236
2016-05-17T05:09:29.681Z,244
2016-05-17T05:10:29.726Z,248
2016-05-17T05:11:29.397Z,248
2016-05-17T05:12:29.911Z,260
2016-05-17T05:13:29.457Z,280
2016-05-17T05:14:29.551Z,292
2016-05-17T05:15:29.835Z,304
2016-05-17T05:16:29.604Z,324
2016-05-17T05:17:29.746Z,320
2016-05-17T05:18:29.405Z,316
2016-05-17T05:19:29.418Z,316
2016-05-17T05:20:29.411Z,300
2016-05-17T05:21:29.684Z,316
2016-05-17T05:22:29.724Z,336
2016-05-17T05:23:31.106Z,332
2016-05-17T05:24:29.300Z,328
2016-05-17T05:25:29.383Z,328
2016-05-17T05:26:28.998Z,344
2016-05-17T05:27:29.877Z,336
2016-05-17T05:28:29.491Z,332
2016-05-17T05:29:29.323Z,332
2016-05-17T05:30:29.732Z,340
2016-05-17T05:31:30.064Z,340
2016-05-17T05:32:29.146Z,332
2016-05-17T05:33:29.384Z,332
2016-05-17T05:34:29.199Z,336
2016-05-17T05:35:29.187Z,352
2016-05-17T05:36:29.440Z,368
2016-05-17T05:37:30.084Z,384
2016-05-17T05:38:28.837Z,404
2016-05-17T05:39:29.277Z,408
2016-05-17T05:40:29.951Z,420
2016-05-17T05:41:29.845Z,436
2016-05-17T05:42:28.957Z,432
2016-05-17T05:43:28.851Z,428
2016-05-17T05:44:28.978Z,456
2016-05-17T05:45:31.340Z,504
2016-05-17T05:46:28.999Z,556
2016-05-17T05:47:29.907Z,572
2016-05-17T05:48:28.771Z,568
2016-05-17T05:49:28.928Z,556
2016-05-17T05:50:29.212Z,532
2016-05-17T05:51:30.215Z,528
2016-05-17T05:52:28.687Z,548
2016-05-17T05:53:28.753Z,564
2016-05-17T05:54:29.443Z,568
2016-05-17T05:55:29.211Z,572
2016-05-17T05:56:30.479Z,580
2016-05-17T05:57:28.670Z,588
2016-05-17T05:58:28.594Z,580
2016-05-17T05:59:30.159Z,560
2016-05-17T06:00:29.068Z,540
2016-05-17T06:01:28.383Z,540
2016-05-17T06:02:28.870Z,512
2016-05-17T06:03:29.295Z,504
2016-05-17T06:04:29.032Z,492
2016-05-17T06:05:29.238Z,464
2016-05-17T06:06:30.240Z,456
2016-05-17T06:07:28.540Z,428
2016-05-17T06:08:29.308Z,432
2016-05-17T06:09:28.499Z,452
2016-05-17T06:10:28.048Z,484
2016-05-17T06:11:29.097Z,508
2016-05-17T06:12:30.224Z,536
2016-05-17T06:13:30.306Z,548
2016-05-17T06:14:30.746Z,556
2016-05-17T06:15:28.718Z,556
2016-05-17T06:16:28.485Z,556
2016-05-17T06:17:29.785Z,552
2016-05-17T06:18:28.663Z,548
2016-05-17T06:19:27.665Z,528
2016-05-17T06:20:27.919Z,516
2016-05-17T06:21:28.843Z,556
2016-05-17T06:22:27.814Z,568
2016-05-17T06:23:28.379Z,588
2016-05-17T06:24:28.320Z,584
2016-05-17T06:25:28.089Z,576
2016-05-17T06:26:27.701Z,564
2016-05-17T06:27:28.126Z,604
2016-05-17T06:28:27.877Z,612
2016-05-17T06:29:28.318Z,624
2016-05-17T06:30:27.383Z,580
2016-05-17T06:31:28.089Z,536
2016-05-17T06:32:28.061Z,556
2016-05-17T06:33:28.595Z,588
2016-05-17T06:34:29.253Z,644
2016-05-17T06:35:27.975Z,696
2016-05-17T06:36:28.556Z,692
2016-05-17T06:37:27.949Z,668
2016-05-17T06:38:27.545Z,648
2016-05-17T06:39:28.032Z,664
2016-05-17T06:40:27.535Z,688
2016-05-17T06:41:27.960Z,708
2016-05-17T06:42:27.994Z,700
2016-05-17T06:43:27.465Z,656
2016-05-17T06:44:27.468Z,652
2016-05-17T06:45:27.861Z,636
2016-05-17T06:46:28.535Z,616
2016-05-17T06:47:27.351Z,712
2016-05-17T06:48:27.150Z,772
2016-05-17T06:49:27.184Z,776
2016-05-17T06:50:27.656Z,816
2016-05-17T06:51:28.049Z,860
2016-05-17T06:52:28.004Z,872
2016-05-17T06:53:28.117Z,860
2016-05-17T06:54:27.198Z,860
2016-05-17T06:55:26.934Z,868
2016-05-17T06:56:28.265Z,868
2016-05-17T06:57:28.564Z,852
2016-05-17T06:58:27.099Z,884
2016-05-17T06:59:27.820Z,916
2016-05-17T07:00:27.058Z,956
2016-05-17T07:01:27.044Z,992
2016-05-17T07:02:27.672Z,1008
2016-05-17T07:03:27.050Z,1020
2016-05-17T07:04:27.208Z,1028
2016-05-17T07:05:27.539Z,1036
2016-05-17T07:06:26.870Z,1032
2016-05-17T07:07:26.842Z,1056
2016-05-17T07:08:26.938Z,1032
2016-05-17T07:09:27.113Z,980
2016-05-17T07:10:26.755Z,960
2016-05-17T07:11:26.837Z,988
2016-05-17T07:12:27.152Z,964
2016-05-17T07:13:27.233Z,952
2016-05-17T07:14:27.329Z,960
2016-05-17T07:15:26.957Z,976
2016-05-17T07:16:26.507Z,992
2016-05-17T07:17:26.900Z,992
2016-05-17T07:18:26.699Z,984
2016-05-17T07:19:27.124Z,996
2016-05-17T07:20:26.736Z,1052
2016-05-17T07:21:27.426Z,1092
2016-05-17T07:22:27.288Z,1096
2016-05-17T07:23:26.462Z,1096
2016-05-17T07:24:26.591Z,1068
2016-05-17T07:25:26.406Z,1084
2016-05-17T07:26:26.581Z,1128
2016-05-17T07:27:27.099Z,1156
2016-05-17T07:28:26.414Z,1160
2016-05-17T07:29:26.714Z,1176
2016-05-17T07:30:26.841Z,1196
2016-05-17T07:31:26.453Z,1200
2016-05-17T07:32:26.440Z,1216
2016-05-17T07:33:26.990Z,1252
2016-05-17T07:34:27.274Z,1296
2016-05-17T07:35:26.995Z,1332
2016-05-17T07:36:26.467Z,1340
2016-05-17T07:37:26.672Z,1348
2016-05-17T07:38:25.956Z,1336
2016-05-17T07:39:26.631Z,1344
2016-05-17T07:40:26.211Z,1336
2016-05-17T07:41:26.308Z,1308
2016-05-17T07:42:29.671Z,1324
2016-05-17T07:43:25.860Z,1312
2016-05-17T07:44:25.832Z,1304
2016-05-17T07:45:26.162Z,1308
2016-05-17T07:46:25.932Z,1292
2016-05-17T07:47:26.263Z,1300
2016-05-17T07:48:26.312Z,1332
2016-05-17T07:49:26.033Z,1376
2016-05-17T07:50:26.020Z,1400
2016-05-17T07:51:26.648Z,1400
2016-05-17T07:52:26.619Z,1420
2016-05-17T07:53:25.778Z,1472
2016-05-17T07:54:26.249Z,1528
2016-05-17T07:55:25.767Z,1504
2016-05-17T07:56:26.084Z,1472
2016-05-17T07:57:27.023Z,1416
2016-05-17T07:58:25.651Z,1368
2016-05-17T07:59:26.310Z,1344
2016-05-17T08:00:26.172Z,1352
2016-05-17T08:01:25.862Z,1400
2016-05-17T08:02:25.521Z,1416
2016-05-17T08:03:25.758Z,1400
2016-05-17T08:04:26.073Z,1396
2016-05-17T08:05:25.575Z,1376
2016-05-17T08:06:25.298Z,1372
2016-05-17T08:07:25.597Z,1352
2016-05-17T08:08:25.849Z,1312
2016-05-17T08:09:25.681Z,1296
2016-05-17T08:10:25.386Z,1340
2016-05-17T08:11:26.499Z,1392
2016-05-17T08:12:26.220Z,1396
2016-05-17T08:13:25.269Z,1380
2016-05-17T08:14:25.147Z,1392
2016-05-17T08:15:25.899Z,1360
2016-05-17T08:16:25.152Z,1360
2016-05-17T08:17:25.421Z,1380
2016-05-17T08:18:26.079Z,1408
2016-05-17T08:19:25.098Z,1460
2016-05-17T08:20:25.351Z,1460
2016-05-17T08:21:25.290Z,1496
2016-05-17T08:22:25.372Z,1556
2016-05-17T08:23:25.968Z,1604
2016-05-17T08:24:25.299Z,1648
2016-05-17T08:25:25.942Z,1656
2016-05-17T08:26:25.429Z,1624
2016-05-17T08:27:25.198Z,1608
2016-05-17T08:28:25.122Z,1632
2016-05-17T08:29:24.937Z,1628
2016-05-17T08:30:25.206Z,1676
2016-05-17T08:31:25.428Z,1688
2016-05-17T08:32:25.726Z,1692
2016-05-17T08:33:25.120Z,1636
2016-05-17T08:34:25.420Z,1588
2016-05-17T08:35:25.220Z,1572
2016-05-17T08:36:26.925Z,1584
2016-05-17T08:37:24.709Z,1668
2016-05-17T08:38:25.197Z,1708
2016-05-17T08:39:25.792Z,1664
2016-05-17T08:40:25.655Z,1668
2016-05-17T08:41:24.705Z,1736
2016-05-17T08:42:25.238Z,1688
2016-05-17T08:43:24.756Z,1684
2016-05-17T08:44:24.774Z,1732
2016-05-17T08:45:24.621Z,1756
2016-05-17T08:46:25.452Z,1836
2016-05-17T08:47:25.017Z,1920
2016-05-17T08:48:25.035Z,1796
2016-05-17T08:49:24.882Z,1720
2016-05-17T08:50:24.196Z,1732
2016-05-17T08:51:24.731Z,1796
2016-05-17T08:52:25.171Z,1916
2016-05-17T08:53:25.737Z,1928
2016-05-17T08:54:24.380Z,1832
2016-05-17T08:55:24.351Z,1820
2016-05-17T08:56:24.698Z,1964
2016-05-17T08:57:24.748Z,2220
2016-05-17T08:58:24.406Z,2280
2016-05-17T08:59:24.253Z,2280
2016-05-17T09:00:24.209Z,2256
2016-05-17T09:01:24.336Z,2284
2016-05-17T09:02:24.401Z,2432
2016-05-17T09:03:24.138Z,2396
2016-05-17T09:04:24.078Z,2400
2016-05-17T09:05:24.659Z,2288
2016-05-17T09:06:24.317Z,2252
2016-05-17T09:07:25.414Z,2368
2016-05-17T09:08:24.667Z,2424
2016-05-17T09:09:41.655Z,2320
2016-05-17T09:10:23.970Z,2192
2016-05-17T09:11:23.660Z,2084
2016-05-17T09:12:23.788Z,2100
2016-05-17T09:13:37.118Z,2120
2016-05-17T09:14:23.856Z,2188
2016-05-17T09:15:23.952Z,2500
2016-05-17T09:16:24.220Z,2716
2016-05-17T09:17:24.095Z,2788
2016-05-17T09:18:24.097Z,2636
2016-05-17T09:19:23.929Z,2664
2016-05-17T09:20:23.806Z,2384
2016-05-17T09:21:23.996Z,2280
2016-05-17T09:22:26.768Z,2184
2016-05-17T09:23:23.627Z,2212
2016-05-17T09:24:23.427Z,2380
2016-05-17T09:25:23.788Z,2488
2016-05-17T09:26:24.666Z,2688
2016-05-17T09:27:24.044Z,2544
2016-05-17T09:28:23.515Z,2584
2016-05-17T09:29:25.237Z,2608
2016-05-17T09:30:44.851Z,2544
2016-05-17T09:31:23.476Z,2540
2016-05-17T09:32:23.542Z,2480
2016-05-17T09:33:23.388Z,2620
2016-05-17T09:34:23.423Z,2692
2016-05-17T09:35:23.347Z,2684
2016-05-17T09:36:23.115Z,2752
2016-05-17T09:37:24.103Z,2648
2016-05-17T09:38:23.448Z,2552
2016-05-17T09:39:23.342Z,2516
2016-05-17T09:40:23.361Z,2372
2016-05-17T09:41:23.519Z,2248
2016-05-17T09:42:23.116Z,2284
2016-05-17T09:43:23.322Z,2316
2016-05-17T09:44:23.199Z,2516
2016-05-17T09:45:23.202Z,2644
2016-05-17T09:46:23.297Z,2624
2016-05-17T09:47:23.394Z,2548
2016-05-17T09:48:23.100Z,2604
2016-05-17T09:49:23.102Z,2612
2016-05-17T09:50:22.871Z,2740
2016-05-17T09:51:23.093Z,2808
2016-05-17T09:52:23.408Z,2920
2016-05-17T09:53:23.505Z,2900
2016-05-17T09:54:22.852Z,2800
2016-05-17T09:55:23.087Z,2804
2016-05-17T09:56:23.216Z,2756
2016-05-17T09:57:22.953Z,2876
2016-05-17T09:58:22.752Z,2804
2016-05-17T09:59:23.115Z,2696
2016-05-17T10:00:22.835Z,2660
2016-05-17T10:01:23.073Z,2596
2016-05-17T10:02:22.732Z,2628
2016-05-17T10:03:23.125Z,2588
2016-05-17T10:04:22.643Z,2408
2016-05-17T10:05:22.490Z,2376
2016-05-17T10:06:22.523Z,2624
2016-05-17T10:07:22.683Z,2480
2016-05-17T10:08:22.889Z,2720
2016-05-17T10:09:22.470Z,2852
2016-05-17T10:10:22.972Z,2956
2016-05-17T10:11:22.850Z,2828
2016-05-17T10:12:22.586Z,3016
2016-05-17T10:13:22.528Z,3148
2016-05-17T10:14:22.702Z,3100
2016-05-17T10:15:22.830Z,3020
2016-05-17T10:16:22.739Z,2984
2016-05-17T10:17:22.991Z,3012
2016-05-17T10:18:22.509Z,3264
2016-05-17T10:19:22.434Z,3416
2016-05-17T10:20:22.389Z,3556
2016-05-17T10:21:23.236Z,3552
2016-05-17T10:22:23.536Z,3264
2016-05-17T10:23:23.069Z,3372
2016-05-17T10:24:22.447Z,3212
2016-05-17T10:25:22.012Z,3152
2016-05-17T10:26:22.297Z,3236
2016-05-17T10:27:22.565Z,3404
2016-05-17T10:28:22.051Z,3156
2016-05-17T10:29:22.477Z,3180
2016-05-17T10:30:22.651Z,3100
2016-05-17T10:31:22.168Z,3188
2016-05-17T10:32:22.204Z,3252
2016-05-17T10:33:22.565Z,3008
2016-05-17T10:34:22.115Z,2896
2016-05-17T10:35:22.446Z,3048
2016-05-17T10:36:22.182Z,2812
2016-05-17T10:37:22.278Z,2612
2016-05-17T10:38:22.079Z,2488
2016-05-17T10:39:22.315Z,2080
2016-05-17T10:40:22.068Z,2188
2016-05-17T10:41:21.993Z,2260
2016-05-17T10:42:21.887Z,2356
2016-05-17T10:43:21.920Z,2656
2016-05-17T10:44:21.845Z,2936
2016-05-17T10:45:22.239Z,2936
2016-05-17T10:46:21.709Z,3112
2016-05-17T10:47:22.103Z,3328
2016-05-17T10:48:21.903Z,3296
2016-05-17T10:49:21.764Z,3056
2016-05-17T10:50:21.470Z,3080
2016-05-17T10:51:22.192Z,2964
2016-05-17T10:52:35.510Z,2428
2016-05-17T10:53:22.025Z,2532
2016-05-17T10:54:21.763Z,2552
2016-05-17T10:55:21.593Z,2756
2016-05-17T10:56:21.752Z,2764
2016-05-17T10:57:21.427Z,2844
2016-05-17T10:58:21.616Z,2832
2016-05-17T10:59:24.635Z,2672
2016-05-17T11:00:21.404Z,2668
2016-05-17T11:01:21.594Z,2740
2016-05-17T11:02:21.377Z,3092
2016-05-17T11:03:21.599Z,3456
2016-05-17T11:04:22.007Z,3408
2016-05-17T11:05:21.479Z,2724
2016-05-17T11:06:21.467Z,2884
2016-05-17T11:07:21.422Z,3096
2016-05-17T11:08:21.472Z,3380
2016-05-17T11:09:21.396Z,3048
2016-05-17T11:10:21.368Z,2732
2016-05-17T11:11:21.448Z,2312
2016-05-17T11:12:21.436Z,2276
2016-05-17T11:13:21.203Z,2188
2016-05-17T11:14:21.738Z,1780
2016-05-17T11:15:21.428Z,1272
2016-05-17T11:16:21.008Z,1024
2016-05-17T11:17:21.386Z,892
2016-05-17T11:18:21.264Z,992
2016-05-17T11:19:20.986Z,1236
2016-05-17T11:20:21.208Z,1588
2016-05-17T11:21:21.179Z,1712
2016-05-17T11:22:20.915Z,1400
2016-05-17T11:23:21.340Z,1140
2016-05-17T11:24:21.094Z,1124
2016-05-17T11:25:20.986Z,1324
2016-05-17T11:26:20.755Z,1812
2016-05-17T11:27:21.320Z,2312
2016-05-17T11:28:20.916Z,2860
2016-05-17T11:29:20.919Z,3112
2016-05-17T11:30:20.843Z,3316
2016-05-17T11:31:20.909Z,3608
2016-05-17T11:32:23.958Z,3752
2016-05-17T11:33:20.821Z,4104
2016-05-17T11:34:20.901Z,4776
2016-05-17T11:35:21.029Z,4796
2016-05-17T11:36:20.829Z,4356
2016-05-17T11:37:20.643Z,3596
2016-05-17T11:38:20.692Z,2452
2016-05-17T11:39:20.946Z,2128
2016-05-17T11:40:20.714Z,2024
2016-05-17T11:41:21.311Z,2000
2016-05-17T11:42:20.657Z,2192
2016-05-17T11:43:21.222Z,2240
2016-05-17T11:44:20.600Z,2084
2016-05-17T11:45:20.914Z,1844
2016-05-17T11:46:20.605Z,1840
2016-05-17T11:47:20.811Z,1892
2016-05-17T11:48:20.564Z,1832
2016-05-17T11:49:20.613Z,1656
2016-05-17T11:50:20.491Z,1572
2016-05-17T11:51:20.509Z,1576
2016-05-17T11:52:19.996Z,1660
2016-05-17T11:53:21.093Z,1880
2016-05-17T11:54:20.861Z,2108
2016-05-17T11:55:20.769Z,2108
2016-05-17T11:56:20.257Z,1948
2016-05-17T11:57:20.229Z,1744
2016-05-17T11:58:20.418Z,2052
2016-05-17T11:59:20.453Z,2724
2016-05-17T12:00:21.441Z,3040
2016-05-17T12:01:20.645Z,3136
2016-05-17T12:02:20.367Z,3940
2016-05-17T12:03:20.635Z,7700
2016-05-17T12:04:19.966Z,5172
2016-05-17T12:05:20.187Z,4012
2016-05-17T12:06:22.254Z,6440
2016-05-17T12:07:20.349Z,2712
2016-05-17T12:08:20.789Z,1720
2016-05-17T12:09:20.604Z,1408
2016-05-17T12:10:20.170Z,1196
2016-05-17T12:11:20.734Z,1060
2016-05-17T12:12:20.269Z,944
2016-05-17T12:13:22.631Z,860
2016-05-17T12:14:22.118Z,856
2016-05-17T12:15:20.230Z,980
2016-05-17T12:16:20.280Z,1256
2016-05-17T12:17:22.314Z,1624
2016-05-17T12:18:21.816Z,2092
2016-05-17T12:19:26.725Z,2608
2016-05-17T12:20:20.087Z,3028
2016-05-17T12:21:20.637Z,3712
2016-05-17T12:22:20.905Z,4524
2016-05-17T12:23:20.439Z,5352
2016-05-17T12:24:20.035Z,5040
2016-05-17T12:25:33.588Z,4156
2016-05-17T12:26:20.197Z,3860
2016-05-17T12:27:22.310Z,3316
2016-05-17T12:28:22.655Z,3296
2016-05-17T12:29:22.111Z,3676
2016-05-17T12:30:20.146Z,3232
2016-05-17T12:31:19.758Z,1444
2016-05-17T12:32:22.588Z,892
2016-05-17T12:33:21.435Z,708
2016-05-17T12:34:19.766Z,560
2016-05-17T12:35:19.612Z,480
2016-05-17T12:36:19.693Z,452
2016-05-17T12:37:19.804Z,488
2016-05-17T12:38:20.495Z,516
2016-05-17T12:39:19.732Z,496
2016-05-17T12:40:20.360Z,452
2016-05-17T12:41:19.253Z,440
2016-05-17T12:42:20.131Z,460
2016-05-17T12:43:19.462Z,520
2016-05-17T12:44:19.902Z,572
2016-05-17T12:45:19.998Z,536
2016-05-17T12:46:19.782Z,448
2016-05-17T12:47:19.364Z,412
2016-05-17T12:48:19.616Z,368
2016-05-17T12:49:19.227Z,356
2016-05-17T12:50:19.621Z,368
2016-05-17T12:51:19.280Z,372
2016-05-17T12:52:20.314Z,380
2016-05-17T12:53:19.504Z,368
2016-05-17T12:54:19.444Z,396
2016-05-17T12:55:20.181Z,436
2016-05-17T12:56:19.216Z,496
2016-05-17T12:57:20.359Z,600
2016-05-17T12:58:19.064Z,648
2016-05-17T12:59:19.488Z,788
2016-05-17T13:00:19.116Z,792
2016-05-17T13:01:19.947Z,828
2016-05-17T13:02:19.091Z,856
2016-05-17T13:03:19.203Z,876
2016-05-17T13:04:19.174Z,956
2016-05-17T13:05:19.005Z,1004
2016-05-17T13:06:20.102Z,1060
2016-05-17T13:07:18.917Z,1044
2016-05-17T13:08:19.107Z,1032
2016-05-17T13:09:19.140Z,1008
2016-05-17T13:10:19.721Z,1072
2016-05-17T13:11:19.209Z,1104
2016-05-17T13:12:19.571Z,1180
2016-05-17T13:13:18.886Z,1276
2016-05-17T13:14:18.701Z,1448
2016-05-17T13:15:19.798Z,1476
2016-05-17T13:16:19.176Z,1560
2016-05-17T13:17:18.648Z,1668
2016-05-17T13:18:18.728Z,1876
2016-05-17T13:19:18.620Z,2228
2016-05-17T13:20:19.264Z,2468
2016-05-17T13:21:19.345Z,2848
2016-05-17T13:22:22.176Z,3276
2016-05-17T13:23:20.756Z,4052
2016-05-17T13:24:19.197Z,10508
2016-05-17T13:25:18.449Z,3868
2016-05-17T13:26:20.219Z,4392
2016-05-17T13:27:18.736Z,4324
2016-05-17T13:28:19.942Z,4840
2016-05-17T13:29:18.866Z,6656
2016-05-17T13:30:20.182Z,9664
2016-05-17T13:31:18.949Z,36768
2016-05-17T13:32:19.343Z,3244
2016-05-17T13:33:19.908Z,2544
2016-05-17T13:34:18.490Z,1612
2016-05-17T13:35:21.445Z,1120
2016-05-17T13:36:20.182Z,888
2016-05-17T13:37:18.716Z,928
2016-05-17T13:38:18.172Z,1048
2016-05-17T13:39:18.471Z,1056
2016-05-17T13:40:18.084Z,956
2016-05-17T13:41:18.727Z,896
2016-05-17T13:42:18.527Z,1084
2016-05-17T13:43:18.654Z,1212
2016-05-17T13:44:18.204Z,1408
2016-05-17T13:45:18.676Z,1576
2016-05-17T13:46:19.178Z,1824
2016-05-17T13:47:18.196Z,2016
2016-05-17T13:48:18.012Z,2296
2016-05-17T13:49:17.999Z,2724
2016-05-17T13:50:18.939Z,4828
2016-05-17T13:51:18.207Z,4780
2016-05-17T13:52:19.303Z,4896
2016-05-17T13:53:18.447Z,6280
2016-05-17T13:54:17.825Z,5980